Home

PKWA Terminal Aerodrome Forecast (TAF)small logo


TAF provided by NWS Guam
2015/09/02 18:36
TAF PKWA 021728Z 0218/0318 23010KT P6SM VCSH SCT018 SCT100 
      TEMPO 0218/0220 3SM SHRA BKN015

      



Site Map | Contact Us | Copyright © 2007 Atmospheric Technology Services Company. All rights reserved.